Time;durP1;ratioP1;P1;durP2;ratioP2;P2;SDS_P1;SDS_P2;PMS_P1;PMS_P2;Temp;Humidity;BMP_temperature;BMP_pressure;BME280_temperature;BME280_humidity;BME280_pressure;Samples;Min_cycle;Max_cycle;Signal;HPM_P1;HPM_P2
2022/05/13 00:01:44;;;;;;;3.53;1.55;;;;;;;;;;5001812;28;20426;-78
2022/05/13 00:04:11;;;;;;;2.90;1.07;;;;;;;;;;4984009;28;20679;-78
2022/05/13 00:06:37;;;;;;;3.05;1.70;;;;;;;;;;4986085;28;20502;-78
2022/05/13 00:09:03;;;;;;;8.27;1.25;;;;;;;;;;4984290;28;20191;-78
2022/05/13 00:11:29;;;;;;;3.10;1.40;;;;;;;;;;5001082;28;20197;-79
2022/05/13 00:13:55;;;;;;;4.70;1.42;;;;;;;;;;5001054;28;20207;-78
2022/05/13 00:16:21;;;;;;;2.88;1.25;;;;;;;;;;4983781;28;20192;-78
2022/05/13 00:18:47;;;;;;;1.52;1.20;;;;;;;;;;4986423;28;20224;-78
2022/05/13 00:21:13;;;;;;;1.60;1.10;;;;;;;;;;5001037;28;20193;-78
2022/05/13 00:23:39;;;;;;;4.85;1.50;;;;;;;;;;5000967;28;20438;-78
2022/05/13 00:26:05;;;;;;;3.17;1.33;;;;;;;;;;4985834;28;20195;-78
2022/05/13 00:28:31;;;;;;;5.80;1.10;;;;;;;;;;5001357;28;20210;-78
2022/05/13 00:30:59;;;;;;;4.07;1.53;;;;;;;;;;5003470;28;20430;-78
2022/05/13 00:33:26;;;;;;;2.35;1.05;;;;;;;;;;5002923;28;20462;-78
2022/05/13 00:35:51;;;;;;;2.70;1.10;;;;;;;;;;4999466;28;20218;-78
2022/05/13 00:38:17;;;;;;;1.30;1.10;;;;;;;;;;5000821;28;20183;-78
2022/05/13 00:40:44;;;;;;;2.83;1.30;;;;;;;;;;4985445;28;20524;-78
2022/05/13 00:43:11;;;;;;;5.88;1.52;;;;;;;;;;5002421;28;20426;-78
2022/05/13 00:45:37;;;;;;;2.90;1.23;;;;;;;;;;5002582;28;20565;-78
2022/05/13 00:48:03;;;;;;;2.95;1.30;;;;;;;;;;5000619;28;20195;-78
2022/05/13 00:50:31;;;;;;;2.10;1.30;;;;;;;;;;5001340;28;20183;-78
2022/05/13 00:52:57;;;;;;;5.90;1.40;;;;;;;;;;4985427;28;20211;-78
2022/05/13 00:55:26;;;;;;;2.65;1.25;;;;;;;;;;4983680;28;20198;-78
2022/05/13 00:57:52;;;;;;;5.35;2.42;;;;;;;;;;4985674;28;20179;-78
2022/05/13 01:00:18;;;;;;;5.18;1.92;;;;;;;;;;5001087;28;20212;-78
2022/05/13 01:02:45;;;;;;;3.60;1.63;;;;;;;;;;5000484;28;20218;-78
2022/05/13 01:05:13;;;;;;;1.88;1.10;;;;;;;;;;4984651;28;20216;-78
2022/05/13 01:07:40;;;;;;;5.15;1.80;;;;;;;;;;4984146;28;20211;-78
2022/05/13 01:10:07;;;;;;;1.27;1.17;;;;;;;;;;5002102;28;20263;-78
2022/05/13 01:12:36;;;;;;;5.65;1.42;;;;;;;;;;5002712;28;20213;-78
2022/05/13 01:15:06;;;;;;;2.58;1.30;;;;;;;;;;5000147;28;20210;-78
2022/05/13 01:20:22;;;;;;;4.63;1.10;;;;;;;;;;5000675;28;20206;-78
2022/05/13 01:22:49;;;;;;;2.70;1.15;;;;;;;;;;4999948;28;20206;-78
2022/05/13 01:25:17;;;;;;;3.92;1.52;;;;;;;;;;5001227;28;20187;-78
2022/05/13 01:27:43;;;;;;;1.63;1.20;;;;;;;;;;5003141;28;20182;-78
2022/05/13 01:30:11;;;;;;;3.42;1.10;;;;;;;;;;5001363;28;20195;-78
2022/05/13 01:32:37;;;;;;;4.43;1.40;;;;;;;;;;5005881;28;20199;-78
2022/05/13 01:35:03;;;;;;;2.28;1.20;;;;;;;;;;5003458;28;20643;-78
2022/05/13 01:37:29;;;;;;;5.95;1.75;;;;;;;;;;5003311;28;20184;-78
2022/05/13 01:39:55;;;;;;;1.80;1.38;;;;;;;;;;4989074;28;20174;-78
2022/05/13 01:42:21;;;;;;;2.58;1.20;;;;;;;;;;4995870;28;20220;-78
2022/05/13 01:44:47;;;;;;;1.37;1.10;;;;;;;;;;4999701;28;20194;-78
2022/05/13 01:47:13;;;;;;;3.40;1.27;;;;;;;;;;5002810;28;20810;-78
2022/05/13 01:49:39;;;;;;;2.88;1.25;;;;;;;;;;4992830;28;20191;-78
2022/05/13 01:52:06;;;;;;;2.83;1.23;;;;;;;;;;4987362;28;20637;-78
2022/05/13 01:54:32;;;;;;;1.80;1.10;;;;;;;;;;5005299;28;20500;-78
2022/05/13 01:56:59;;;;;;;5.20;1.50;;;;;;;;;;5003308;28;20712;-77
2022/05/13 01:59:25;;;;;;;3.00;1.08;;;;;;;;;;5003851;28;20438;-77
2022/05/13 02:01:51;;;;;;;2.90;1.30;;;;;;;;;;4988841;28;20271;-78
2022/05/13 02:04:17;;;;;;;1.93;1.40;;;;;;;;;;4987158;28;20294;-79
2022/05/13 02:06:43;;;;;;;2.80;1.10;;;;;;;;;;5006666;28;20426;-78
2022/05/13 02:09:09;;;;;;;3.33;1.27;;;;;;;;;;5003539;28;20187;-77
2022/05/13 02:11:36;;;;;;;3.25;1.20;;;;;;;;;;5003031;28;20449;-77
2022/05/13 02:14:04;;;;;;;2.58;1.75;;;;;;;;;;4988572;28;20202;-79
2022/05/13 02:16:30;;;;;;;2.72;1.73;;;;;;;;;;4985986;28;20657;-79
2022/05/13 02:18:57;;;;;;;2.38;1.25;;;;;;;;;;4987490;28;20234;-78
2022/05/13 02:21:23;;;;;;;2.90;1.33;;;;;;;;;;4987338;28;20172;-78
2022/05/13 02:23:49;;;;;;;2.47;1.20;;;;;;;;;;5002878;28;20321;-78
2022/05/13 02:26:16;;;;;;;1.77;1.27;;;;;;;;;;5004983;28;20191;-78
2022/05/13 02:28:42;;;;;;;2.10;1.10;;;;;;;;;;4987672;28;20438;-78
2022/05/13 02:31:08;;;;;;;6.18;1.50;;;;;;;;;;5004458;28;20632;-78
2022/05/13 02:33:34;;;;;;;1.13;1.02;;;;;;;;;;4973530;28;20226;-79
2022/05/13 02:36:02;;;;;;;4.13;1.20;;;;;;;;;;5000740;28;20191;-79
2022/05/13 02:38:28;;;;;;;2.22;1.58;;;;;;;;;;4999109;28;20175;-79
2022/05/13 02:41:13;;;;;;;2.50;1.50;;;;;;;;;;5002039;28;20645;-79
2022/05/13 02:43:57;;;;;;;2.65;1.70;;;;;;;;;;5003211;28;20207;-79
2022/05/13 02:46:25;;;;;;;2.55;1.10;;;;;;;;;;4983333;28;20199;-79
2022/05/13 02:48:51;;;;;;;1.83;1.23;;;;;;;;;;5005629;28;20175;-79
2022/05/13 02:51:17;;;;;;;3.53;1.10;;;;;;;;;;5002589;28;20595;-79
2022/05/13 02:53:44;;;;;;;2.55;1.30;;;;;;;;;;5002667;28;20214;-79
2022/05/13 02:56:10;;;;;;;1.50;1.23;;;;;;;;;;5002527;28;20648;-78
2022/05/13 02:58:36;;;;;;;2.60;1.00;;;;;;;;;;4985827;28;20277;-79
2022/05/13 03:01:03;;;;;;;3.55;1.35;;;;;;;;;;5004697;28;20175;-79
2022/05/13 03:03:30;;;;;;;1.83;1.38;;;;;;;;;;5003502;28;20190;-79
2022/05/13 03:05:56;;;;;;;1.70;1.23;;;;;;;;;;4987606;28;20271;-79
2022/05/13 03:08:22;;;;;;;2.60;1.38;;;;;;;;;;5002530;28;20257;-79
2022/05/13 03:10:48;;;;;;;3.87;1.57;;;;;;;;;;5001555;28;20660;-79
2022/05/13 03:13:18;;;;;;;4.23;1.47;;;;;;;;;;5002246;28;20477;-79
2022/05/13 03:15:44;;;;;;;1.80;1.20;;;;;;;;;;4997477;28;20426;-79
2022/05/13 03:18:10;;;;;;;2.10;1.23;;;;;;;;;;5001446;28;20227;-79
2022/05/13 03:20:36;;;;;;;4.03;1.38;;;;;;;;;;5002175;28;20443;-79
2022/05/13 03:23:02;;;;;;;3.35;1.40;;;;;;;;;;5002221;28;20183;-79
2022/05/13 03:25:28;;;;;;;1.38;1.27;;;;;;;;;;5002237;28;20190;-79
2022/05/13 03:27:54;;;;;;;4.32;1.33;;;;;;;;;;5004190;28;20243;-79
2022/05/13 03:30:22;;;;;;;3.47;1.20;;;;;;;;;;4986917;28;20182;-79
2022/05/13 03:32:48;;;;;;;1.10;1.00;;;;;;;;;;4986765;28;20242;-79
2022/05/13 03:35:15;;;;;;;3.47;1.38;;;;;;;;;;5001257;28;20214;-79
2022/05/13 03:37:41;;;;;;;5.43;1.40;;;;;;;;;;4986503;28;20187;-79
2022/05/13 03:40:07;;;;;;;2.53;1.45;;;;;;;;;;5003335;28;20202;-79
2022/05/13 03:42:36;;;;;;;3.45;1.27;;;;;;;;;;5003370;28;20194;-79
2022/05/13 03:45:02;;;;;;;1.30;1.15;;;;;;;;;;5001039;28;20245;-79
2022/05/13 03:47:28;;;;;;;2.17;1.38;;;;;;;;;;5001264;28;20183;-79
2022/05/13 03:49:54;;;;;;;2.57;1.53;;;;;;;;;;5001704;28;20202;-79
2022/05/13 03:52:20;;;;;;;2.27;1.13;;;;;;;;;;4984818;28;20438;-79
2022/05/13 03:54:46;;;;;;;3.00;1.03;;;;;;;;;;5004852;28;20457;-79
2022/05/13 03:57:12;;;;;;;3.13;1.20;;;;;;;;;;5001140;28;20450;-79
2022/05/13 03:59:38;;;;;;;1.30;1.10;;;;;;;;;;5001090;28;20528;-79
2022/05/13 04:02:04;;;;;;;1.33;1.20;;;;;;;;;;4983815;28;20446;-79
2022/05/13 04:08:56;;;;;;;1.88;1.10;;;;;;;;;;5001194;28;20194;-78
2022/05/13 04:10:03;;;;;;;5.13;1.25;;;;;;;;;;5001460;28;20217;-79
2022/05/13 04:17:59;;;;;;;3.63;1.38;;;;;;;;;;5000620;28;20662;-79
2022/05/13 04:20:25;;;;;;;2.95;2.25;;;;;;;;;;5001238;28;20664;-78
2022/05/13 04:22:51;;;;;;;1.45;1.10;;;;;;;;;;4985858;28;20182;-79
2022/05/13 04:25:17;;;;;;;2.97;1.45;;;;;;;;;;4984467;28;20658;-79
2022/05/13 04:27:43;;;;;;;1.38;1.02;;;;;;;;;;5003379;28;20189;-78
2022/05/13 04:30:10;;;;;;;1.55;1.45;;;;;;;;;;4985890;28;20187;-79
2022/05/13 04:32:36;;;;;;;4.07;1.50;;;;;;;;;;4986002;28;20207;-79
2022/05/13 04:35:03;;;;;;;1.50;1.15;;;;;;;;;;4999522;28;20202;-79
2022/05/13 04:37:29;;;;;;;4.68;1.45;;;;;;;;;;4985349;28;20178;-78
2022/05/13 04:39:55;;;;;;;7.07;1.55;;;;;;;;;;5002916;28;20226;-79
2022/05/13 04:45:06;;;;;;;2.80;1.58;;;;;;;;;;5000079;28;20452;-78
2022/05/13 04:50:17;;;;;;;1.35;1.20;;;;;;;;;;5000678;28;20210;-79
2022/05/13 04:52:43;;;;;;;5.40;1.70;;;;;;;;;;5000814;28;20226;-78
2022/05/13 04:55:10;;;;;;;8.15;1.92;;;;;;;;;;5001980;28;20242;-78
2022/05/13 04:57:36;;;;;;;6.60;1.80;;;;;;;;;;4986433;28;20183;-79
2022/05/13 05:00:03;;;;;;;1.90;1.35;;;;;;;;;;4999659;28;20300;-79
2022/05/13 05:02:29;;;;;;;4.60;2.47;;;;;;;;;;5002076;28;20572;-79
2022/05/13 05:04:55;;;;;;;2.35;2.17;;;;;;;;;;5002379;28;20237;-77
2022/05/13 05:07:21;;;;;;;1.47;1.30;;;;;;;;;;5007499;28;20187;-78
2022/05/13 05:09:47;;;;;;;1.58;1.10;;;;;;;;;;5010307;28;20493;-78
2022/05/13 05:12:13;;;;;;;5.50;1.53;;;;;;;;;;5006591;28;20193;-78
2022/05/13 05:14:39;;;;;;;4.43;1.80;;;;;;;;;;4989113;28;20485;-77
2022/05/13 05:17:05;;;;;;;2.40;1.87;;;;;;;;;;5006788;28;20298;-78
2022/05/13 05:19:31;;;;;;;3.50;1.73;;;;;;;;;;4988885;28;20466;-79
2022/05/13 05:21:57;;;;;;;2.10;1.60;;;;;;;;;;5009577;28;20171;-78
2022/05/13 05:24:24;;;;;;;3.17;1.80;;;;;;;;;;4988422;28;20186;-78
2022/05/13 05:26:50;;;;;;;2.22;1.52;;;;;;;;;;5005915;28;20198;-78
2022/05/13 05:29:16;;;;;;;6.03;2.03;;;;;;;;;;5005739;28;20187;-78
2022/05/13 05:31:42;;;;;;;6.20;2.38;;;;;;;;;;4997920;28;20249;-78
2022/05/13 05:34:09;;;;;;;2.03;1.70;;;;;;;;;;5008216;28;20226;-78
2022/05/13 05:36:35;;;;;;;3.35;1.50;;;;;;;;;;5010259;28;20182;-78
2022/05/13 05:39:01;;;;;;;6.13;1.95;;;;;;;;;;4991538;28;20557;-78
2022/05/13 05:41:28;;;;;;;4.63;1.67;;;;;;;;;;5002385;28;20187;-78
2022/05/13 05:43:54;;;;;;;3.50;1.40;;;;;;;;;;4989103;28;20773;-78
2022/05/13 05:46:20;;;;;;;2.92;1.50;;;;;;;;;;4991328;28;20254;-79
2022/05/13 05:48:46;;;;;;;6.03;2.23;;;;;;;;;;5010232;28;20202;-78
2022/05/13 05:51:12;;;;;;;5.22;1.75;;;;;;;;;;5006415;28;20441;-78
2022/05/13 05:59:07;;;;;;;6.53;1.40;;;;;;;;;;5006278;28;20190;-79
2022/05/13 06:01:33;;;;;;;3.47;2.15;;;;;;;;;;4990233;28;20184;-78
2022/05/13 06:03:59;;;;;;;3.30;1.98;;;;;;;;;;4990434;28;20542;-79
2022/05/13 06:06:25;;;;;;;4.00;2.07;;;;;;;;;;5007920;28;20179;-80
2022/05/13 06:08:55;;;;;;;5.13;1.67;;;;;;;;;;4991123;28;20923;-79
2022/05/13 06:11:23;;;;;;;4.45;1.80;;;;;;;;;;5006243;28;20183;-79
2022/05/13 06:13:50;;;;;;;4.65;2.00;;;;;;;;;;5005800;28;20222;-79
2022/05/13 06:16:16;;;;;;;3.95;1.95;;;;;;;;;;5006689;28;20201;-83
2022/05/13 06:18:43;;;;;;;4.18;1.40;;;;;;;;;;4998180;28;20220;-80
2022/05/13 06:21:09;;;;;;;3.90;1.77;;;;;;;;;;4988020;28;20183;-79
2022/05/13 06:23:35;;;;;;;2.75;1.48;;;;;;;;;;4999314;28;20230;-78
2022/05/13 06:26:01;;;;;;;5.18;2.08;;;;;;;;;;5003571;28;20187;-79
2022/05/13 06:28:28;;;;;;;3.42;1.77;;;;;;;;;;4986769;28;20202;-79
2022/05/13 06:30:54;;;;;;;3.65;1.90;;;;;;;;;;4989152;28;20207;-78
2022/05/13 06:33:20;;;;;;;3.53;2.40;;;;;;;;;;5004197;28;20203;-78
2022/05/13 06:35:46;;;;;;;5.50;1.75;;;;;;;;;;4984665;28;20499;-81
2022/05/13 06:38:22;;;;;;;6.30;1.60;;;;;;;;;;5001920;28;20218;-78
2022/05/13 06:40:52;;;;;;;7.78;3.15;;;;;;;;;;4980359;28;20435;-79
2022/05/13 06:43:18;;;;;;;5.60;2.10;;;;;;;;;;4999507;28;20189;-79
2022/05/13 06:45:44;;;;;;;3.43;1.53;;;;;;;;;;5005605;28;20632;-79
2022/05/13 06:48:10;;;;;;;5.88;1.25;;;;;;;;;;4985930;28;20434;-79
2022/05/13 06:50:37;;;;;;;5.40;2.15;;;;;;;;;;4987935;28;20375;-79
2022/05/13 06:53:03;;;;;;;6.38;1.50;;;;;;;;;;4987414;28;20191;-79
2022/05/13 06:55:29;;;;;;;4.53;1.30;;;;;;;;;;5002982;28;20196;-77
2022/05/13 06:57:55;;;;;;;3.78;1.20;;;;;;;;;;4986728;28;20244;-77
2022/05/13 07:00:21;;;;;;;2.83;2.25;;;;;;;;;;4997525;28;20250;-79
2022/05/13 07:02:47;;;;;;;1.70;1.30;;;;;;;;;;4997999;28;20185;-77
2022/05/13 07:05:14;;;;;;;1.27;1.00;;;;;;;;;;4994902;28;20630;-79
2022/05/13 07:07:41;;;;;;;1.50;0.95;;;;;;;;;;4986078;28;20440;-79
2022/05/13 07:10:08;;;;;;;6.18;2.05;;;;;;;;;;4984444;28;20176;-78
2022/05/13 07:12:34;;;;;;;4.55;1.17;;;;;;;;;;5005433;28;20249;-78
2022/05/13 07:15:02;;;;;;;2.97;1.80;;;;;;;;;;4999085;28;20248;-79
2022/05/13 07:17:28;;;;;;;1.75;1.13;;;;;;;;;;4997800;28;20204;-78
2022/05/13 07:19:55;;;;;;;3.50;1.40;;;;;;;;;;4986023;28;20379;-79
2022/05/13 07:22:21;;;;;;;3.72;1.23;;;;;;;;;;4983255;28;20440;-78
2022/05/13 07:24:47;;;;;;;2.47;1.05;;;;;;;;;;5005120;28;20180;-81
2022/05/13 07:27:13;;;;;;;2.65;1.30;;;;;;;;;;5000018;28;20220;-80
2022/05/13 07:29:39;;;;;;;1.45;1.00;;;;;;;;;;4998669;28;20187;-84
2022/05/13 07:32:05;;;;;;;1.77;1.10;;;;;;;;;;4986356;28;20456;-80
2022/05/13 07:34:32;;;;;;;1.52;1.00;;;;;;;;;;4999177;28;20310;-84
2022/05/13 07:36:58;;;;;;;1.35;0.90;;;;;;;;;;4980801;28;20192;-79
2022/05/13 07:42:10;;;;;;;4.32;1.40;;;;;;;;;;4999586;28;20446;-83
2022/05/13 07:44:37;;;;;;;5.75;1.40;;;;;;;;;;5002546;28;20363;-79
2022/05/13 07:47:03;;;;;;;1.70;0.90;;;;;;;;;;4996288;28;20187;-82
2022/05/13 07:49:29;;;;;;;2.53;1.33;;;;;;;;;;4985207;28;20208;-82
2022/05/13 07:51:55;;;;;;;4.20;1.20;;;;;;;;;;5003705;28;20181;-81
2022/05/13 07:54:22;;;;;;;6.47;1.40;;;;;;;;;;5000900;28;20823;-80
2022/05/13 07:56:48;;;;;;;2.28;1.10;;;;;;;;;;4982969;28;20184;-79
2022/05/13 07:59:14;;;;;;;3.05;1.25;;;;;;;;;;4984310;28;20278;-79
2022/05/13 08:01:40;;;;;;;4.00;1.20;;;;;;;;;;4985870;28;20183;-79
2022/05/13 08:04:06;;;;;;;4.40;1.67;;;;;;;;;;5002653;28;20863;-78
2022/05/13 08:06:32;;;;;;;4.70;1.60;;;;;;;;;;5002645;28;20502;-81
2022/05/13 08:08:58;;;;;;;5.15;1.30;;;;;;;;;;4982972;28;20441;-80
2022/05/13 08:11:26;;;;;;;3.60;2.00;;;;;;;;;;5000076;28;20197;-81
2022/05/13 08:13:52;;;;;;;3.28;1.10;;;;;;;;;;5001621;28;20462;-79
2022/05/13 08:16:24;;;;;;;2.63;1.10;;;;;;;;;;4998801;28;20239;-79
2022/05/13 08:18:50;;;;;;;3.05;1.05;;;;;;;;;;5004464;28;20234;-81
2022/05/13 08:21:16;;;;;;;3.90;1.60;;;;;;;;;;4982420;28;20210;-82
2022/05/13 08:23:42;;;;;;;7.10;2.15;;;;;;;;;;4984082;28;20202;-78
2022/05/13 08:26:08;;;;;;;8.35;2.45;;;;;;;;;;4995439;28;20190;-82
2022/05/13 08:28:35;;;;;;;3.35;1.80;;;;;;;;;;5000583;28;20190;-78
2022/05/13 08:31:01;;;;;;;3.17;1.48;;;;;;;;;;4999913;28;20190;-80
2022/05/13 08:33:27;;;;;;;2.88;1.35;;;;;;;;;;4984360;28;20202;-78
2022/05/13 08:35:56;;;;;;;5.85;1.60;;;;;;;;;;4985415;28;20190;-80
2022/05/13 08:38:24;;;;;;;4.30;1.35;;;;;;;;;;5000101;28;20197;-77
2022/05/13 08:40:50;;;;;;;6.10;1.63;;;;;;;;;;4988757;28;20218;-78
2022/05/13 08:43:21;;;;;;;9.65;1.48;;;;;;;;;;4993891;28;20192;-79
2022/05/13 08:45:53;;;;;;;4.65;2.25;;;;;;;;;;4990795;28;20206;-78
2022/05/13 08:48:21;;;;;;;3.72;1.45;;;;;;;;;;5001332;28;20175;-79
2022/05/13 08:51:07;;;;;;;2.67;1.50;;;;;;;;;;4997557;28;20189;-78
2022/05/13 08:53:40;;;;;;;2.78;1.40;;;;;;;;;;4917999;29;20752;-78
2022/05/13 08:56:09;;;;;;;2.80;1.00;;;;;;;;;;4920464;29;20198;-78
2022/05/13 08:58:39;;;;;;;3.53;1.42;;;;;;;;;;4872713;29;20223;-79
2022/05/13 09:01:09;;;;;;;3.20;1.40;;;;;;;;;;4885160;29;20179;-80
2022/05/13 09:03:35;;;;;;;3.00;1.23;;;;;;;;;;4881756;29;20183;-81
2022/05/13 09:06:19;;;;;;;4.73;1.40;;;;;;;;;;4879370;29;20207;-79
2022/05/13 09:08:46;;;;;;;5.65;1.60;;;;;;;;;;4884822;29;20450;-81
2022/05/13 09:11:12;;;;;;;2.95;0.90;;;;;;;;;;4880399;29;20619;-79
2022/05/13 09:13:45;;;;;;;1.73;1.00;;;;;;;;;;4880593;29;20217;-82
2022/05/13 09:16:11;;;;;;;2.85;0.90;;;;;;;;;;4886457;29;20251;-79
2022/05/13 09:18:57;;;;;;;1.20;0.80;;;;;;;;;;4883655;29;20720;-81
2022/05/13 09:21:23;;;;;;;2.47;1.08;;;;;;;;;;4886226;29;20197;-78
2022/05/13 09:23:49;;;;;;;1.37;1.00;;;;;;;;;;4882726;29;20234;-81
2022/05/13 09:26:19;;;;;;;1.67;1.00;;;;;;;;;;4886066;29;20560;-79
2022/05/13 09:29:04;;;;;;;3.97;1.10;;;;;;;;;;4887410;29;20191;-84
2022/05/13 09:31:31;;;;;;;3.65;1.00;;;;;;;;;;4918427;29;20260;-79
2022/05/13 09:33:57;;;;;;;1.58;1.15;;;;;;;;;;4935521;29;20219;-78
2022/05/13 09:36:23;;;;;;;1.30;1.00;;;;;;;;;;4935736;29;20194;-84
2022/05/13 09:38:53;;;;;;;0.90;0.90;;;;;;;;;;4934503;29;20193;-79
2022/05/13 09:41:25;;;;;;;2.03;1.10;;;;;;;;;;4936648;29;20429;-80
2022/05/13 09:43:52;;;;;;;3.25;1.23;;;;;;;;;;4929376;29;20258;-79
2022/05/13 09:46:22;;;;;;;1.67;1.00;;;;;;;;;;4933151;29;20189;-80
2022/05/13 09:49:11;;;;;;;3.20;1.27;;;;;;;;;;4944272;29;20443;-82
2022/05/13 09:51:56;;;;;;;1.57;1.23;;;;;;;;;;4940297;29;20467;-80
2022/05/13 09:54:33;;;;;;;1.53;0.90;;;;;;;;;;4949423;29;20475;-78
2022/05/13 09:57:10;;;;;;;1.70;1.00;;;;;;;;;;4930774;29;20427;-80
2022/05/13 09:59:38;;;;;;;3.30;1.40;;;;;;;;;;4950156;29;20404;-91
2022/05/13 10:02:15;;;;;;;2.13;1.13;;;;;;;;;;4950591;29;20439;-79
2022/05/13 10:04:42;;;;;;;2.50;0.90;;;;;;;;;;4930531;29;20450;-80
2022/05/13 10:07:13;;;;;;;1.40;1.10;;;;;;;;;;4948046;29;20188;-80
2022/05/13 10:15:25;;;;;;;5.25;1.35;;;;;;;;;;4948540;29;20273;-84
2022/05/13 10:17:53;;;;;;;2.60;1.10;;;;;;;;;;4930486;29;20182;-82
2022/05/13 10:20:22;;;;;;;1.98;1.23;;;;;;;;;;4947721;29;20218;-80
2022/05/13 10:22:54;;;;;;;2.53;1.20;;;;;;;;;;4947949;29;20198;-79
2022/05/13 10:25:32;;;;;;;2.15;1.30;;;;;;;;;;4930931;29;20532;-80
2022/05/13 10:28:02;;;;;;;1.77;1.10;;;;;;;;;;4943532;29;20194;-83
2022/05/13 10:31:00;;;;;;;1.75;1.10;;;;;;;;;;4947958;29;20183;-82
2022/05/13 10:33:30;;;;;;;2.08;1.10;;;;;;;;;;4853942;29;20202;-80
2022/05/13 10:35:59;;;;;;;2.17;1.30;;;;;;;;;;4855107;29;20209;-83
2022/05/13 10:38:54;;;;;;;1.70;1.17;;;;;;;;;;4855239;29;20223;-81
2022/05/13 10:41:25;;;;;;;3.65;0.90;;;;;;;;;;4848798;29;20198;-80
2022/05/13 10:43:53;;;;;;;1.77;1.10;;;;;;;;;;4855071;29;20202;-85
2022/05/13 10:46:21;;;;;;;3.42;1.38;;;;;;;;;;4835644;29;20194;-82
2022/05/13 10:48:50;;;;;;;4.72;1.88;;;;;;;;;;4856626;29;20260;-83
2022/05/13 10:51:19;;;;;;;3.75;1.48;;;;;;;;;;4855152;29;20240;-79
2022/05/13 10:54:09;;;;;;;1.73;1.63;;;;;;;;;;4855506;29;20239;-79
2022/05/13 10:56:35;;;;;;;2.25;1.10;;;;;;;;;;4854553;29;20269;-78
2022/05/13 10:59:08;;;;;;;2.20;1.20;;;;;;;;;;4836448;29;20194;-78
2022/05/13 11:01:53;;;;;;;4.07;1.40;;;;;;;;;;4862145;29;20446;-80
2022/05/13 11:04:38;;;;;;;2.45;1.38;;;;;;;;;;4850045;29;20188;-79
2022/05/13 11:07:16;;;;;;;1.70;1.23;;;;;;;;;;4865367;29;20196;-85
2022/05/13 11:09:51;;;;;;;3.40;1.38;;;;;;;;;;4928076;29;20218;-79
2022/05/13 11:12:20;;;;;;;1.85;1.45;;;;;;;;;;4928365;29;20203;-79
2022/05/13 11:15:05;;;;;;;2.95;1.10;;;;;;;;;;4941914;29;20272;-81
2022/05/13 11:17:40;;;;;;;5.18;1.20;;;;;;;;;;4928490;29;20212;-79
2022/05/13 11:20:42;;;;;;;3.10;1.20;;;;;;;;;;4943262;29;20269;-80
2022/05/13 11:23:27;;;;;;;1.83;1.27;;;;;;;;;;4887582;29;20197;-79
2022/05/13 11:26:13;;;;;;;2.80;1.15;;;;;;;;;;4891174;29;20759;-80
2022/05/13 11:28:55;;;;;;;3.78;1.20;;;;;;;;;;4875437;29;20222;-82
2022/05/13 11:31:28;;;;;;;1.20;1.10;;;;;;;;;;4891611;29;20699;-79
2022/05/13 11:34:02;;;;;;;3.58;1.48;;;;;;;;;;4867729;29;20221;-84
2022/05/13 11:36:29;;;;;;;2.03;1.52;;;;;;;;;;4896244;29;20180;-84
2022/05/13 11:39:21;;;;;;;1.65;1.20;;;;;;;;;;4874603;29;20208;-82
2022/05/13 11:42:05;;;;;;;2.08;0.95;;;;;;;;;;4886560;29;20201;-83
2022/05/13 11:44:51;;;;;;;1.80;1.63;;;;;;;;;;4887238;29;20203;-81
2022/05/13 11:47:20;;;;;;;5.65;1.13;;;;;;;;;;4885919;29;20204;-79
2022/05/13 11:49:47;;;;;;;3.55;1.75;;;;;;;;;;4887409;29;20213;-81
2022/05/13 11:52:13;;;;;;;3.10;1.25;;;;;;;;;;4886756;29;20374;-86
2022/05/13 11:54:41;;;;;;;2.03;1.10;;;;;;;;;;4872090;29;20240;-81
2022/05/13 11:57:28;;;;;;;4.93;1.00;;;;;;;;;;4916491;29;20448;-79
2022/05/13 11:59:55;;;;;;;2.80;1.20;;;;;;;;;;4944368;29;20207;-84
2022/05/13 12:02:33;;;;;;;1.70;1.27;;;;;;;;;;4945733;29;20306;-81
2022/05/13 12:05:02;;;;;;;4.10;1.20;;;;;;;;;;4926771;29;20456;-79
2022/05/13 12:07:30;;;;;;;2.37;1.00;;;;;;;;;;4946010;29;20472;-79
2022/05/13 12:09:58;;;;;;;1.20;1.10;;;;;;;;;;4945270;29;20457;-80
2022/05/13 12:12:38;;;;;;;1.57;1.43;;;;;;;;;;4941915;29;20430;-84
2022/05/13 12:15:04;;;;;;;3.87;1.73;;;;;;;;;;4943657;29;20549;-82
2022/05/13 12:17:33;;;;;;;5.13;1.50;;;;;;;;;;4945086;29;20441;-87
2022/05/13 12:20:14;;;;;;;2.23;0.87;;;;;;;;;;4928919;29;20481;-81
2022/05/13 12:22:59;;;;;;;1.53;1.00;;;;;;;;;;4945911;29;20821;-80
2022/05/13 12:25:31;;;;;;;1.63;1.20;;;;;;;;;;4930929;29;20442;-80
2022/05/13 12:28:06;;;;;;;1.37;1.03;;;;;;;;;;4927418;29;20502;-81
2022/05/13 12:30:36;;;;;;;3.93;1.40;;;;;;;;;;4946112;29;20902;-82
2022/05/13 12:33:23;;;;;;;2.70;1.00;;;;;;;;;;4928096;29;20425;-79
2022/05/13 12:39:03;;;;;;;2.10;1.03;;;;;;;;;;4944343;29;20800;-81
2022/05/13 12:41:44;;;;;;;2.30;1.00;;;;;;;;;;4944800;29;20433;-81
2022/05/13 12:44:12;;;;;;;2.40;1.20;;;;;;;;;;4943765;29;20463;-82
2022/05/13 12:47:13;;;;;;;2.57;0.87;;;;;;;;;;4939148;29;20513;-80
2022/05/13 12:49:48;;;;;;;1.60;1.33;;;;;;;;;;4928750;29;20444;-83
2022/05/13 12:52:14;;;;;;;2.23;1.00;;;;;;;;;;4927928;29;20520;-80
2022/05/13 12:54:59;;;;;;;4.00;1.40;;;;;;;;;;4943167;29;20865;-83
2022/05/13 12:57:28;;;;;;;3.07;0.90;;;;;;;;;;4943318;29;20515;-84
2022/05/13 12:59:55;;;;;;;2.53;0.90;;;;;;;;;;4940067;29;20943;-80
2022/05/13 13:02:22;;;;;;;1.50;1.10;;;;;;;;;;4942993;29;20444;-84
2022/05/13 13:04:57;;;;;;;2.60;1.40;;;;;;;;;;4927288;29;20476;-81
2022/05/13 13:07:25;;;;;;;1.80;0.80;;;;;;;;;;4943089;29;20529;-83
2022/05/13 13:09:51;;;;;;;3.03;1.00;;;;;;;;;;4946125;29;20507;-88
2022/05/13 13:12:22;;;;;;;1.23;0.80;;;;;;;;;;4943066;29;20465;-81
2022/05/13 13:15:07;;;;;;;0.93;0.73;;;;;;;;;;4945068;29;20475;-81
2022/05/13 13:17:39;;;;;;;1.93;0.90;;;;;;;;;;4927803;29;20479;-82
2022/05/13 13:20:06;;;;;;;1.50;1.00;;;;;;;;;;4928363;29;20497;-80
2022/05/13 13:22:35;;;;;;;2.73;1.10;;;;;;;;;;4944137;29;20521;-83
2022/05/13 13:25:06;;;;;;;3.63;0.90;;;;;;;;;;4944459;29;20460;-80
2022/05/13 13:27:32;;;;;;;2.20;1.07;;;;;;;;;;4947003;29;20440;-79
2022/05/13 13:29:59;;;;;;;2.03;1.10;;;;;;;;;;4948928;29;20444;-80
2022/05/13 13:32:26;;;;;;;3.00;1.20;;;;;;;;;;4946451;29;20440;-80
2022/05/13 13:34:52;;;;;;;3.60;1.10;;;;;;;;;;4944151;29;20843;-80
2022/05/13 13:37:20;;;;;;;1.50;1.07;;;;;;;;;;4948103;29;20433;-80
2022/05/13 13:39:46;;;;;;;4.30;0.93;;;;;;;;;;4949131;29;20426;-82
2022/05/13 13:42:13;;;;;;;2.60;1.10;;;;;;;;;;4946571;29;20426;-89
2022/05/13 13:44:41;;;;;;;4.23;1.00;;;;;;;;;;4931537;29;20444;-82
2022/05/13 13:47:11;;;;;;;1.00;0.93;;;;;;;;;;4947353;29;20449;-81
2022/05/13 13:49:39;;;;;;;1.63;1.00;;;;;;;;;;4946895;29;20487;-81
2022/05/13 13:52:11;;;;;;;2.97;1.00;;;;;;;;;;4931718;29;20927;-81
2022/05/13 13:54:47;;;;;;;2.13;2.00;;;;;;;;;;4948623;29;20468;-82
2022/05/13 13:57:24;;;;;;;1.60;1.00;;;;;;;;;;4947650;29;20432;-82
2022/05/13 13:59:59;;;;;;;3.90;0.87;;;;;;;;;;4931495;29;20425;-79
2022/05/13 14:02:37;;;;;;;1.93;1.07;;;;;;;;;;4930983;29;20467;-82
2022/05/13 14:05:06;;;;;;;1.90;1.33;;;;;;;;;;4948240;29;20470;-81
2022/05/13 14:07:32;;;;;;;1.70;0.83;;;;;;;;;;4948031;29;20475;-81
2022/05/13 14:09:59;;;;;;;2.60;0.80;;;;;;;;;;4948701;29;20423;-81
2022/05/13 14:12:26;;;;;;;3.13;1.00;;;;;;;;;;4942746;29;20416;-83
2022/05/13 14:14:55;;;;;;;1.00;0.77;;;;;;;;;;4943824;29;20448;-81
2022/05/13 14:17:22;;;;;;;1.07;0.77;;;;;;;;;;4940598;29;20437;-83
2022/05/13 14:19:51;;;;;;;1.87;1.07;;;;;;;;;;4931239;29;20533;-79
2022/05/13 14:22:17;;;;;;;1.47;0.80;;;;;;;;;;4948100;29;20479;-81
2022/05/13 14:24:44;;;;;;;3.23;0.90;;;;;;;;;;4948830;29;20424;-83
2022/05/13 14:27:13;;;;;;;0.80;0.80;;;;;;;;;;4948029;29;20448;-81
2022/05/13 14:29:40;;;;;;;2.53;0.90;;;;;;;;;;4948023;29;20440;-80
2022/05/13 14:32:08;;;;;;;1.40;0.90;;;;;;;;;;4930679;29;20492;-81
2022/05/13 14:34:35;;;;;;;1.40;1.00;;;;;;;;;;4930000;29;20497;-82
2022/05/13 14:37:03;;;;;;;0.70;0.70;;;;;;;;;;4947275;29;20500;-81
2022/05/13 14:39:50;;;;;;;1.67;1.10;;;;;;;;;;4948231;29;20401;-86
2022/05/13 14:42:46;;;;;;;2.60;1.10;;;;;;;;;;4930396;29;20801;-86
2022/05/13 14:45:25;;;;;;;2.30;0.90;;;;;;;;;;4914862;29;20416;-79
2022/05/13 14:47:52;;;;;;;2.40;1.00;;;;;;;;;;4947334;29;20432;-83
2022/05/13 14:50:20;;;;;;;1.10;0.83;;;;;;;;;;4947506;29;20441;-81
2022/05/13 14:52:55;;;;;;;1.10;0.90;;;;;;;;;;4947495;29;20437;-81
2022/05/13 14:55:26;;;;;;;1.53;0.90;;;;;;;;;;4947371;29;20470;-79
2022/05/13 14:57:52;;;;;;;2.57;0.80;;;;;;;;;;4944798;29;20423;-84
2022/05/13 15:00:20;;;;;;;2.00;0.80;;;;;;;;;;4947920;29;20446;-80
2022/05/13 15:03:07;;;;;;;2.33;1.43;;;;;;;;;;4947212;29;20492;-80
2022/05/13 15:05:37;;;;;;;1.43;0.80;;;;;;;;;;4942188;29;20416;-81
2022/05/13 15:08:22;;;;;;;2.93;0.90;;;;;;;;;;4935799;29;20415;-80
2022/05/13 15:10:48;;;;;;;0.80;0.80;;;;;;;;;;4930431;29;20412;-81
2022/05/13 15:13:14;;;;;;;1.13;1.00;;;;;;;;;;4929451;29;20427;-81
2022/05/13 15:15:41;;;;;;;2.13;1.03;;;;;;;;;;4948064;29;20502;-79
2022/05/13 15:18:16;;;;;;;3.50;1.10;;;;;;;;;;4930133;29;20443;-86
2022/05/13 15:20:42;;;;;;;2.00;1.20;;;;;;;;;;4947147;29;20535;-80
2022/05/13 15:23:08;;;;;;;1.90;0.87;;;;;;;;;;4946262;29;20945;-82
2022/05/13 15:25:35;;;;;;;1.23;0.70;;;;;;;;;;4947237;29;20420;-81
2022/05/13 15:28:01;;;;;;;2.50;0.90;;;;;;;;;;4946826;29;20406;-79
2022/05/13 15:30:28;;;;;;;1.97;0.90;;;;;;;;;;4947528;29;20512;-82